createdAt,value
2022-10-02T00:02:14.456Z,56.77
2022-10-02T00:04:57.886Z,56.79
2022-10-02T00:07:34.559Z,56.77
2022-10-02T00:10:09.688Z,56.81
2022-10-02T00:12:37.139Z,56.72
2022-10-02T00:15:14.859Z,56.75
2022-10-02T00:17:45.274Z,56.75
2022-10-02T00:20:18.164Z,56.89
2022-10-02T00:22:56.969Z,56.85
2022-10-02T00:25:47.096Z,56.86
2022-10-02T00:28:24.988Z,56.78
2022-10-02T00:31:15.858Z,56.71
2022-10-02T00:33:59.051Z,56.81
2022-10-02T00:36:32.959Z,56.70
2022-10-02T00:39:19.656Z,56.77
2022-10-02T00:42:05.565Z,56.65
2022-10-02T00:44:57.260Z,56.57
2022-10-02T00:47:27.407Z,56.47
2022-10-02T00:50:18.037Z,56.38
2022-10-02T00:52:59.611Z,56.34
2022-10-02T00:56:02.027Z,56.37
2022-10-02T00:58:43.592Z,56.43
2022-10-02T01:01:18.160Z,56.21
2022-10-02T01:03:56.479Z,56.32
2022-10-02T01:06:27.252Z,56.24
2022-10-02T01:08:55.883Z,56.23
2022-10-02T01:11:24.458Z,56.27
2022-10-02T01:13:51.850Z,56.22
2022-10-02T01:16:19.752Z,56.25
2022-10-02T01:18:48.055Z,56.04
2022-10-02T01:21:38.103Z,56.11
2022-10-02T01:24:23.992Z,56.20
2022-10-02T01:26:51.508Z,56.19
2022-10-02T01:29:18.964Z,56.10
2022-10-02T01:31:46.322Z,56.06
2022-10-02T01:34:13.910Z,56.06
2022-10-02T01:36:41.314Z,55.97
2022-10-02T01:39:08.853Z,55.97
2022-10-02T01:41:42.642Z,55.93
2022-10-02T01:44:11.651Z,55.88
2022-10-02T01:46:59.407Z,55.87
2022-10-02T01:49:45.371Z,55.85
2022-10-02T01:52:43.637Z,55.89
2022-10-02T01:55:28.898Z,55.72
2022-10-02T01:58:32.562Z,55.75
2022-10-02T02:01:23.292Z,55.80
2022-10-02T02:04:14.608Z,55.73
2022-10-02T02:06:48.775Z,55.74
2022-10-02T02:09:42.116Z,55.75
2022-10-02T02:12:18.946Z,55.78
2022-10-02T02:15:01.827Z,55.78
2022-10-02T02:17:46.408Z,55.81
2022-10-02T02:20:20.824Z,55.86
2022-10-02T02:22:51.764Z,55.76
2022-10-02T02:25:24.376Z,55.81
2022-10-02T02:27:57.275Z,55.86
2022-10-02T02:30:25.425Z,55.80
2022-10-02T02:33:00.059Z,55.82
2022-10-02T02:35:33.025Z,55.86
2022-10-02T02:38:10.230Z,55.85
2022-10-02T02:40:42.055Z,55.91
2022-10-02T02:43:18.058Z,56.14
2022-10-02T02:45:57.610Z,56.08
2022-10-02T02:48:29.779Z,55.95
2022-10-02T02:51:08.793Z,55.87
2022-10-02T02:53:46.861Z,56.25
2022-10-02T02:56:19.694Z,56.08
2022-10-02T02:58:54.296Z,56.22
2022-10-02T03:01:21.754Z,56.29
2022-10-02T03:03:49.070Z,56.41
2022-10-02T03:06:16.232Z,56.45
2022-10-02T03:08:44.218Z,56.42
2022-10-02T03:11:23.230Z,56.07
2022-10-02T03:13:56.395Z,56.09
2022-10-02T03:17:01.203Z,56.42
2022-10-02T03:19:50.167Z,56.28
2022-10-02T03:22:25.990Z,56.42
2022-10-02T03:25:08.265Z,56.43
2022-10-02T03:28:02.258Z,56.36
2022-10-02T03:30:30.620Z,56.41
2022-10-02T03:33:01.060Z,56.39
2022-10-02T03:35:29.858Z,56.19
2022-10-02T03:38:00.504Z,56.35
2022-10-02T03:40:27.751Z,56.46
2022-10-02T03:42:58.405Z,56.18
2022-10-02T03:45:46.634Z,56.09
2022-10-02T03:48:14.759Z,55.92
2022-10-02T03:50:42.022Z,55.82
2022-10-02T03:53:15.478Z,55.85
2022-10-02T03:55:57.824Z,55.88
2022-10-02T04:01:02.691Z,55.77
2022-10-02T04:03:51.004Z,55.77
2022-10-02T04:06:25.526Z,55.64
2022-10-02T04:14:10.899Z,55.67
2022-10-02T04:16:44.443Z,55.87
2022-10-02T04:19:18.725Z,55.58
2022-10-02T04:21:54.852Z,55.62
2022-10-02T04:24:31.128Z,55.59
2022-10-02T04:27:12.942Z,55.55
2022-10-02T04:29:46.799Z,55.61
2022-10-02T04:32:27.325Z,55.55
2022-10-02T04:34:54.708Z,55.51
2022-10-02T04:37:48.247Z,55.60
2022-10-02T04:40:24.752Z,55.43
2022-10-02T04:43:09.886Z,55.54
2022-10-02T04:46:03.316Z,55.47
2022-10-02T04:48:30.419Z,55.27
2022-10-02T04:51:16.333Z,55.39
2022-10-02T04:54:13.918Z,55.42
2022-10-02T04:56:56.241Z,55.34
2022-10-02T04:59:44.269Z,55.34
2022-10-02T05:02:46.851Z,55.22
2022-10-02T05:05:26.243Z,55.17
2022-10-02T05:08:16.769Z,55.26
2022-10-02T05:11:00.111Z,55.23
2022-10-02T05:13:32.989Z,55.20
2022-10-02T05:16:11.926Z,55.12
2022-10-02T05:18:42.011Z,55.10
2022-10-02T05:21:24.941Z,55.24
2022-10-02T05:24:34.898Z,55.33
2022-10-02T05:27:19.534Z,55.04
2022-10-02T05:29:58.948Z,55.10
2022-10-02T05:32:32.225Z,55.12
2022-10-02T05:34:59.427Z,55.01
2022-10-02T05:37:34.842Z,54.98
2022-10-02T05:40:24.686Z,55.08
2022-10-02T05:42:59.761Z,55.09
2022-10-02T05:45:38.397Z,55.04
2022-10-02T05:48:14.223Z,55.08
2022-10-02T05:50:42.848Z,55.07
2022-10-02T05:53:28.348Z,55.16
2022-10-02T05:56:22.792Z,55.09
2022-10-02T05:59:09.055Z,55.09
2022-10-02T06:01:41.278Z,55.05
2022-10-02T06:04:22.305Z,55.15
2022-10-02T06:06:53.685Z,55.13
2022-10-02T06:09:26.143Z,54.37
2022-10-02T06:12:00.501Z,53.34
2022-10-02T06:14:36.236Z,53.73
2022-10-02T06:17:13.364Z,53.15
2022-10-02T06:20:02.956Z,52.67
2022-10-02T06:22:45.626Z,51.55
2022-10-02T06:25:29.600Z,51.35
2022-10-02T06:28:09.183Z,51.64
2022-10-02T06:30:41.562Z,51.27
2022-10-02T06:33:26.286Z,50.37
2022-10-02T06:36:12.882Z,50.51
2022-10-02T06:39:07.840Z,50.29
2022-10-02T06:42:02.839Z,50.42
2022-10-02T06:44:33.790Z,50.60
2022-10-02T06:47:14.805Z,51.14
2022-10-02T06:49:51.156Z,51.71
2022-10-02T06:52:24.490Z,52.29
2022-10-02T06:55:00.531Z,52.43
2022-10-02T06:57:33.649Z,52.54
2022-10-02T07:00:16.449Z,52.65
2022-10-02T07:02:52.904Z,52.79
2022-10-02T07:05:29.106Z,52.78
2022-10-02T07:08:44.370Z,52.88
2022-10-02T07:11:19.212Z,52.93
2022-10-02T07:14:30.324Z,53.00
2022-10-02T07:17:19.250Z,53.07
2022-10-02T07:20:03.383Z,53.10
2022-10-02T07:23:07.793Z,53.19
2022-10-02T07:26:12.173Z,53.26
2022-10-02T07:29:12.579Z,53.36
2022-10-02T07:32:01.486Z,53.49
2022-10-02T07:34:31.542Z,53.48
2022-10-02T07:37:25.402Z,53.55
2022-10-02T07:40:16.960Z,53.57
2022-10-02T07:42:55.541Z,53.65
2022-10-02T07:45:39.527Z,53.72
2022-10-02T07:48:12.747Z,53.73
2022-10-02T07:50:58.563Z,53.83
2022-10-02T07:53:40.927Z,53.92
2022-10-02T07:56:20.020Z,53.83
2022-10-02T07:58:53.886Z,53.82
2022-10-02T08:01:31.019Z,53.95
2022-10-02T08:04:07.297Z,54.04
2022-10-02T08:06:36.740Z,53.97
2022-10-02T08:09:19.450Z,54.06
2022-10-02T08:12:14.260Z,54.10
2022-10-02T08:14:45.655Z,54.08
2022-10-02T08:17:42.850Z,54.07
2022-10-02T08:20:24.518Z,54.14
2022-10-02T08:23:16.375Z,54.14
2022-10-02T08:25:50.473Z,54.10
2022-10-02T08:28:27.930Z,54.17
2022-10-02T08:30:55.315Z,54.21
2022-10-02T08:33:23.273Z,54.30
2022-10-02T08:36:16.774Z,54.34
2022-10-02T08:38:43.875Z,54.39
2022-10-02T08:41:44.744Z,54.37
2022-10-02T08:44:45.691Z,54.36
2022-10-02T08:47:40.590Z,54.39
2022-10-02T08:50:31.749Z,54.41
2022-10-02T08:53:21.942Z,54.42
2022-10-02T08:56:26.544Z,54.44
2022-10-02T08:59:31.330Z,54.46
2022-10-02T09:02:27.778Z,54.38
2022-10-02T09:05:01.103Z,54.37
2022-10-02T09:07:43.501Z,54.38
2022-10-02T09:10:45.759Z,54.36
2022-10-02T09:13:40.989Z,54.45
2022-10-02T09:16:10.963Z,54.42
2022-10-02T09:19:04.091Z,54.44
2022-10-02T09:21:52.524Z,54.52
2022-10-02T09:24:59.328Z,54.47
2022-10-02T09:27:38.360Z,54.51
2022-10-02T09:30:30.268Z,54.45
2022-10-02T09:33:19.166Z,54.42
2022-10-02T09:36:13.944Z,54.47
2022-10-02T09:38:59.757Z,54.56
2022-10-02T09:41:48.257Z,54.52
2022-10-02T09:44:47.767Z,54.52
2022-10-02T09:47:35.621Z,54.51
2022-10-02T09:50:24.336Z,54.45
2022-10-02T09:53:13.024Z,54.59
2022-10-02T09:56:32.536Z,54.54
2022-10-02T09:59:21.264Z,54.62
2022-10-02T10:02:25.839Z,54.51
2022-10-02T10:05:10.177Z,54.65
2022-10-02T10:07:37.425Z,54.64
2022-10-02T10:10:43.214Z,54.67
2022-10-02T10:13:22.377Z,54.73
2022-10-02T10:15:49.555Z,54.53
2022-10-02T10:18:57.598Z,54.70
2022-10-02T10:21:45.729Z,54.71
2022-10-02T10:24:18.578Z,54.65
2022-10-02T10:27:13.503Z,54.76
2022-10-02T10:30:13.184Z,54.80
2022-10-02T10:33:14.279Z,54.77
2022-10-02T10:36:02.988Z,54.82
2022-10-02T10:38:39.905Z,54.81
2022-10-02T10:41:36.317Z,54.80
2022-10-02T10:44:16.701Z,54.88
2022-10-02T10:46:55.641Z,54.89
2022-10-02T10:49:43.225Z,54.89
2022-10-02T10:52:42.194Z,54.90
2022-10-02T10:58:04.694Z,55.07
2022-10-02T11:00:53.310Z,55.03
2022-10-02T11:03:59.837Z,54.95
2022-10-02T11:06:45.958Z,54.89
2022-10-02T11:09:31.018Z,55.04
2022-10-02T11:11:58.268Z,54.98
2022-10-02T11:14:28.801Z,54.96
2022-10-02T11:17:14.965Z,55.10
2022-10-02T11:20:19.238Z,55.10
2022-10-02T11:23:07.976Z,55.11
2022-10-02T11:25:50.223Z,55.13
2022-10-02T11:28:23.290Z,55.10
2022-10-02T11:31:08.878Z,55.18
2022-10-02T11:38:59.703Z,55.21
2022-10-02T11:41:50.890Z,55.14
2022-10-02T11:44:57.420Z,55.26
2022-10-02T11:50:35.008Z,55.27
2022-10-02T11:56:06.451Z,55.20
2022-10-02T11:59:06.468Z,55.39
2022-10-02T12:01:54.905Z,55.29
2022-10-02T12:04:55.245Z,55.38
2022-10-02T12:07:34.555Z,55.35
2022-10-02T12:10:27.482Z,55.30
2022-10-02T12:13:04.494Z,55.36
2022-10-02T12:15:56.715Z,55.26
2022-10-02T12:18:24.014Z,55.40
2022-10-02T12:24:14.760Z,55.32
2022-10-02T12:29:48.579Z,55.30
2022-10-02T12:32:37.625Z,55.33
2022-10-02T12:35:21.505Z,55.37
2022-10-02T12:38:16.300Z,55.30
2022-10-02T12:41:17.528Z,55.26
2022-10-02T12:44:03.030Z,55.33
2022-10-02T12:47:01.042Z,55.35
2022-10-02T12:49:45.814Z,55.25
2022-10-02T12:52:28.786Z,55.25
2022-10-02T12:55:32.750Z,55.29
2022-10-02T12:58:23.105Z,55.24
2022-10-02T13:01:35.785Z,55.29
2022-10-02T13:04:38.013Z,55.31
2022-10-02T13:07:26.319Z,55.27
2022-10-02T13:10:19.330Z,55.25
2022-10-02T13:12:50.954Z,55.29
2022-10-02T13:15:46.027Z,55.28
2022-10-02T13:18:43.766Z,55.33
2022-10-02T13:21:11.441Z,55.27
2022-10-02T13:24:09.987Z,55.21
2022-10-02T13:26:54.021Z,55.23
2022-10-02T13:29:33.121Z,55.29
2022-10-02T13:32:28.369Z,55.24
2022-10-02T13:35:10.594Z,55.22
2022-10-02T13:38:06.751Z,55.20
2022-10-02T13:40:47.861Z,55.24
2022-10-02T13:43:44.086Z,55.16
2022-10-02T13:46:30.065Z,55.25
2022-10-02T13:49:08.602Z,55.27
2022-10-02T13:52:06.688Z,55.33
2022-10-02T13:54:58.783Z,55.26
2022-10-02T13:57:37.749Z,55.22
2022-10-02T14:00:37.405Z,55.26
2022-10-02T14:03:16.103Z,55.21
2022-10-02T14:05:58.080Z,55.25
2022-10-02T14:08:52.228Z,55.33
2022-10-02T14:11:29.919Z,55.28
2022-10-02T14:14:18.330Z,55.27
2022-10-02T14:17:07.276Z,55.26
2022-10-02T14:19:55.384Z,55.24
2022-10-02T14:22:37.502Z,55.22
2022-10-02T14:25:23.330Z,55.36
2022-10-02T14:27:59.551Z,55.24
2022-10-02T14:30:44.951Z,55.27
2022-10-02T14:33:24.003Z,55.43
2022-10-02T14:36:07.168Z,55.32
2022-10-02T14:38:37.015Z,55.34
2022-10-02T14:41:49.090Z,55.43
2022-10-02T14:44:50.332Z,55.38
2022-10-02T14:47:55.185Z,55.41
2022-10-02T14:50:49.313Z,55.43
2022-10-02T14:53:16.577Z,55.34
2022-10-02T14:56:22.113Z,55.34
2022-10-02T14:59:11.757Z,55.27
2022-10-02T15:02:34.264Z,55.38
2022-10-02T15:05:30.379Z,55.41
2022-10-02T15:08:00.042Z,55.37
2022-10-02T15:10:33.955Z,55.44
2022-10-02T15:13:14.401Z,55.43
2022-10-02T15:15:48.840Z,55.41
2022-10-02T15:18:41.961Z,55.44
2022-10-02T15:21:15.303Z,55.45
2022-10-02T15:23:45.500Z,55.60
2022-10-02T15:26:27.915Z,55.49
2022-10-02T15:29:00.876Z,55.45
2022-10-02T15:31:44.336Z,55.49
2022-10-02T15:34:19.819Z,55.47
2022-10-02T15:37:01.889Z,55.55
2022-10-02T15:39:37.149Z,55.55
2022-10-02T15:42:09.336Z,55.53
2022-10-02T15:44:44.133Z,55.52
2022-10-02T15:47:30.429Z,55.40
2022-10-02T15:50:35.115Z,55.59
2022-10-02T15:53:08.323Z,55.56
2022-10-02T15:55:42.909Z,55.59
2022-10-02T15:58:26.286Z,55.62
2022-10-02T16:01:32.263Z,55.54
2022-10-02T16:04:23.402Z,55.60
2022-10-02T16:07:02.526Z,55.58
2022-10-02T16:09:47.763Z,55.60
2022-10-02T16:12:14.981Z,55.62
2022-10-02T16:15:18.108Z,55.66
2022-10-02T16:18:16.480Z,55.72
2022-10-02T16:21:06.406Z,55.64
2022-10-02T16:23:53.908Z,55.73
2022-10-02T16:26:21.153Z,55.77
2022-10-02T16:29:23.800Z,55.79
2022-10-02T16:31:56.617Z,55.74
2022-10-02T16:34:32.415Z,55.78
2022-10-02T16:37:02.729Z,55.92
2022-10-02T16:39:36.025Z,55.85
2022-10-02T16:42:48.368Z,55.85
2022-10-02T16:45:47.320Z,55.87
2022-10-02T16:48:42.268Z,56.00
2022-10-02T16:51:27.033Z,55.90
2022-10-02T16:54:09.327Z,55.89
2022-10-02T16:56:44.822Z,55.87
2022-10-02T16:59:31.193Z,55.89
2022-10-02T17:02:18.630Z,55.93
2022-10-02T17:04:59.339Z,55.96
2022-10-02T17:07:52.961Z,55.91
2022-10-02T17:10:28.893Z,56.00
2022-10-02T17:13:26.546Z,56.00
2022-10-02T17:16:11.613Z,56.02
2022-10-02T17:18:41.685Z,56.03
2022-10-02T17:21:20.341Z,55.98
2022-10-02T17:23:56.379Z,56.03
2022-10-02T17:26:31.321Z,56.09
2022-10-02T17:29:22.815Z,56.03
2022-10-02T17:31:58.976Z,56.05
2022-10-02T17:34:44.362Z,56.11
2022-10-02T17:37:17.444Z,56.10
2022-10-02T17:40:02.829Z,56.09
2022-10-02T17:42:44.910Z,56.06
2022-10-02T17:45:38.183Z,56.09
2022-10-02T17:48:20.053Z,56.13
2022-10-02T17:51:53.745Z,56.25
2022-10-02T17:54:50.456Z,56.13
2022-10-02T17:57:43.614Z,56.25
2022-10-02T18:00:16.560Z,56.13
2022-10-02T18:03:15.759Z,56.20
2022-10-02T18:05:57.892Z,56.22
2022-10-02T18:08:34.385Z,56.24
2022-10-02T18:11:19.474Z,56.35
2022-10-02T18:13:59.560Z,56.30
2022-10-02T18:16:38.845Z,56.36
2022-10-02T18:19:36.913Z,56.34
2022-10-02T18:22:43.578Z,56.34
2022-10-02T18:25:30.222Z,56.34
2022-10-02T18:28:15.723Z,56.27
2022-10-02T18:31:28.822Z,56.25
2022-10-02T18:34:32.883Z,56.31
2022-10-02T18:37:00.484Z,56.40
2022-10-02T18:39:42.068Z,56.40
2022-10-02T18:42:40.042Z,56.36
2022-10-02T18:45:27.317Z,56.32
2022-10-02T18:48:29.759Z,56.47
2022-10-02T18:51:14.810Z,56.35
2022-10-02T18:54:15.946Z,56.35
2022-10-02T18:56:58.483Z,56.43
2022-10-02T19:00:21.986Z,56.51
2022-10-02T19:02:49.150Z,56.42
2022-10-02T19:05:31.228Z,56.46
2022-10-02T19:08:04.480Z,56.55
2022-10-02T19:10:31.671Z,56.51
2022-10-02T19:13:23.872Z,56.70
2022-10-02T19:15:54.515Z,56.80
2022-10-02T19:18:25.363Z,56.62
2022-10-02T19:21:09.289Z,56.76
2022-10-02T19:24:19.957Z,56.76
2022-10-02T19:26:52.137Z,56.90
2022-10-02T19:29:25.636Z,56.81
2022-10-02T19:31:54.622Z,56.86
2022-10-02T19:34:25.683Z,56.84
2022-10-02T19:36:57.127Z,56.85
2022-10-02T19:39:41.382Z,56.95
2022-10-02T19:42:15.077Z,56.96
2022-10-02T19:44:48.756Z,57.00
2022-10-02T19:47:27.197Z,57.08
2022-10-02T19:49:56.932Z,57.20
2022-10-02T19:52:36.332Z,57.13
2022-10-02T19:55:18.331Z,56.93
2022-10-02T19:57:47.970Z,56.94
2022-10-02T20:00:17.414Z,57.04
2022-10-02T20:02:48.002Z,57.04
2022-10-02T20:05:22.876Z,57.10
2022-10-02T20:07:55.470Z,57.10
2022-10-02T20:10:31.106Z,57.27
2022-10-02T20:13:03.367Z,57.52
2022-10-02T20:15:59.632Z,57.48
2022-10-02T20:18:27.457Z,57.39
2022-10-02T20:21:06.428Z,57.37
2022-10-02T20:23:37.303Z,57.81
2022-10-02T20:26:08.789Z,58.02
2022-10-02T20:28:49.986Z,57.72
2022-10-02T20:31:27.622Z,57.61
2022-10-02T20:33:59.294Z,57.41
2022-10-02T20:36:39.121Z,57.59
2022-10-02T20:39:19.681Z,57.51
2022-10-02T20:42:09.895Z,57.54
2022-10-02T20:44:38.288Z,57.66
2022-10-02T20:47:42.793Z,57.56
2022-10-02T20:50:19.895Z,57.64
2022-10-02T20:53:11.406Z,57.58
2022-10-02T20:55:38.610Z,57.57
2022-10-02T20:58:25.203Z,57.51
2022-10-02T21:01:17.389Z,57.50
2022-10-02T21:06:31.722Z,57.62
2022-10-02T21:09:17.303Z,57.61
2022-10-02T21:11:56.419Z,57.63
2022-10-02T21:14:34.456Z,57.71
2022-10-02T21:17:29.327Z,58.01
2022-10-02T21:20:14.090Z,59.10
2022-10-02T21:23:03.828Z,58.98
2022-10-02T21:25:31.586Z,59.41
2022-10-02T21:28:16.891Z,59.45
2022-10-02T21:30:59.125Z,59.39
2022-10-02T21:33:54.946Z,59.53
2022-10-02T21:36:27.763Z,59.41
2022-10-02T21:39:00.596Z,59.38
2022-10-02T21:42:09.798Z,59.31
2022-10-02T21:45:25.147Z,59.59
2022-10-02T21:48:24.290Z,59.67
2022-10-02T21:51:19.317Z,59.48
2022-10-02T21:54:11.553Z,59.58
2022-10-02T21:57:11.218Z,59.81
2022-10-02T21:59:47.017Z,59.91
2022-10-02T22:02:20.097Z,60.08
2022-10-02T22:05:07.606Z,60.04
2022-10-02T22:07:50.977Z,60.15
2022-10-02T22:10:18.132Z,60.17
2022-10-02T22:13:15.361Z,60.47
2022-10-02T22:15:48.716Z,60.07
2022-10-02T22:18:18.785Z,60.06
2022-10-02T22:20:55.706Z,59.90
2022-10-02T22:23:58.079Z,59.92
2022-10-02T22:26:31.497Z,59.95
2022-10-02T22:29:10.061Z,59.92
2022-10-02T22:31:55.089Z,59.89
2022-10-02T22:34:44.116Z,59.97
2022-10-02T22:37:40.526Z,59.95
2022-10-02T22:40:14.316Z,59.84
2022-10-02T22:42:53.942Z,59.81
2022-10-02T22:45:39.318Z,59.86
2022-10-02T22:48:27.163Z,59.84
2022-10-02T22:51:23.682Z,59.76
2022-10-02T22:54:19.845Z,59.85
2022-10-02T22:57:07.179Z,59.80
2022-10-02T22:59:58.999Z,59.75
2022-10-02T23:02:32.542Z,59.80
2022-10-02T23:05:33.120Z,59.69
2022-10-02T23:08:25.927Z,59.76
2022-10-02T23:11:25.046Z,59.71
2022-10-02T23:14:13.936Z,59.72
2022-10-02T23:16:49.085Z,59.60
2022-10-02T23:19:26.989Z,59.55
2022-10-02T23:22:05.942Z,59.57
2022-10-02T23:25:00.374Z,59.52
2022-10-02T23:27:58.971Z,59.58
2022-10-02T23:30:30.446Z,59.50
2022-10-02T23:33:07.062Z,59.49
2022-10-02T23:35:47.743Z,59.46
2022-10-02T23:38:14.948Z,59.81
2022-10-02T23:41:35.098Z,59.50
2022-10-02T23:44:17.225Z,59.41
2022-10-02T23:46:50.541Z,59.49
2022-10-02T23:49:18.918Z,59.38
2022-10-02T23:51:55.530Z,59.39
2022-10-02T23:54:50.646Z,59.32
2022-10-02T23:57:44.686Z,59.41
